createdAt,value
2018-10-06T00:01:23.253Z,98254.75
2018-10-06T00:03:51.571Z,98254.09
2018-10-06T00:06:19.824Z,98252.68
2018-10-06T00:08:48.176Z,98259.19
2018-10-06T00:11:16.683Z,98248.50
2018-10-06T00:13:45.184Z,98249.45
2018-10-06T00:16:14.317Z,98250.42
2018-10-06T00:18:42.564Z,98248.66
2018-10-06T00:21:11.100Z,98247.47
2018-10-06T00:23:39.401Z,98248.70
2018-10-06T00:26:07.927Z,98254.28
2018-10-06T00:28:36.291Z,98247.61
2018-10-06T00:31:04.569Z,98244.94
2018-10-06T00:33:33.064Z,98241.17
2018-10-06T00:36:01.506Z,98241.17
2018-10-06T00:38:29.899Z,98241.22
2018-10-06T00:40:58.213Z,98234.22
2018-10-06T00:43:26.542Z,98238.13
2018-10-06T00:45:54.812Z,98231.28
2018-10-06T00:48:23.122Z,98229.62
2018-10-06T00:50:51.541Z,98225.41
2018-10-06T00:53:19.938Z,98224.28
2018-10-06T00:55:48.275Z,98225.46
2018-10-06T00:58:16.577Z,98219.52
2018-10-06T01:00:44.924Z,98211.08
2018-10-06T01:03:13.243Z,98207.01
2018-10-06T01:05:41.556Z,98211.22
2018-10-06T01:08:09.997Z,98210.58
2018-10-06T01:10:38.333Z,98208.45
2018-10-06T01:13:06.695Z,98209.97
2018-10-06T01:15:35.092Z,98211.31
2018-10-06T01:18:03.514Z,98208.59
2018-10-06T01:20:31.817Z,98206.14
2018-10-06T01:23:00.276Z,98202.82
2018-10-06T01:25:28.577Z,98194.41
2018-10-06T01:27:57.003Z,98189.53
2018-10-06T01:30:25.345Z,98184.67
2018-10-06T01:32:53.673Z,98183.41
2018-10-06T01:35:21.959Z,98182.55
2018-10-06T01:37:50.371Z,98186.77
2018-10-06T01:40:18.820Z,98178.47
2018-10-06T01:42:47.106Z,98169.48
2018-10-06T01:45:15.440Z,98173.95
2018-10-06T01:47:43.768Z,98168.26
2018-10-06T01:50:12.099Z,98171.42
2018-10-06T01:52:40.453Z,98178.99
2018-10-06T01:55:08.730Z,98179.84
2018-10-06T01:57:37.009Z,98178.52
2018-10-06T02:00:05.340Z,98168.04
2018-10-06T02:02:33.702Z,98170.75
2018-10-06T02:05:01.995Z,98170.94
2018-10-06T02:07:30.388Z,98166.02
2018-10-06T02:10:00.190Z,98169.98
2018-10-06T02:12:28.674Z,98167.84
2018-10-06T02:14:57.151Z,98171.64
2018-10-06T02:17:25.449Z,98167.02
2018-10-06T02:19:53.729Z,98178.85
2018-10-06T02:22:22.304Z,98173.41
2018-10-06T02:24:50.614Z,98171.97
2018-10-06T02:27:18.963Z,98168.55
2018-10-06T02:29:47.289Z,98167.89
2018-10-06T02:32:15.606Z,98175.89
2018-10-06T02:34:43.945Z,98171.61
2018-10-06T02:37:12.246Z,98168.59
2018-10-06T02:39:40.673Z,98164.34
2018-10-06T02:42:08.960Z,98168.11
2018-10-06T02:44:37.309Z,98177.67
2018-10-06T02:47:05.741Z,98165.67
2018-10-06T02:49:34.186Z,98162.48
2018-10-06T02:52:02.491Z,98167.67
2018-10-06T02:54:31.116Z,98162.41
2018-10-06T02:56:59.418Z,98158.13
2018-10-06T02:59:27.745Z,98156.16
2018-10-06T03:01:56.240Z,98157.11
2018-10-06T03:04:24.523Z,98144.78
2018-10-06T03:06:52.856Z,98147.90
2018-10-06T03:09:21.306Z,98141.95
2018-10-06T03:11:49.785Z,98143.91
2018-10-06T03:14:18.137Z,98136.38
2018-10-06T03:16:46.560Z,98136.30
2018-10-06T03:19:14.847Z,98133.42
2018-10-06T03:21:43.125Z,98125.63
2018-10-06T03:24:11.501Z,98125.13
2018-10-06T03:26:39.817Z,98121.99
2018-10-06T03:29:08.140Z,98115.84
2018-10-06T03:31:36.464Z,98117.44
2018-10-06T03:34:04.783Z,98112.48
2018-10-06T03:36:33.104Z,98114.27
2018-10-06T03:39:01.536Z,98110.55
2018-10-06T03:41:29.834Z,98110.57
2018-10-06T03:43:58.260Z,98117.66
2018-10-06T03:46:26.538Z,98121.72
2018-10-06T03:48:54.825Z,98127.16
2018-10-06T03:51:23.199Z,98132.11
2018-10-06T03:53:51.514Z,98126.33
2018-10-06T03:56:19.815Z,98129.02
2018-10-06T03:58:48.235Z,98121.08
2018-10-06T04:01:16.566Z,98120.64
2018-10-06T04:03:44.892Z,98126.70
2018-10-06T04:06:13.270Z,98125.89
2018-10-06T04:08:41.573Z,98134.60
2018-10-06T04:11:10.059Z,98128.03
2018-10-06T04:13:38.345Z,98122.05
2018-10-06T04:16:06.792Z,98125.10
2018-10-06T04:18:35.056Z,98117.08
2018-10-06T04:21:03.408Z,98110.20
2018-10-06T04:23:31.685Z,98110.50
2018-10-06T04:26:00.085Z,98108.25
2018-10-06T04:28:28.502Z,98104.53
2018-10-06T04:30:56.741Z,98105.70
2018-10-06T04:33:25.106Z,98106.64
2018-10-06T04:35:53.393Z,98105.65
2018-10-06T04:38:21.699Z,98101.06
2018-10-06T04:40:50.058Z,98099.39
2018-10-06T04:43:18.568Z,98100.20
2018-10-06T04:45:46.867Z,98102.63
2018-10-06T04:48:15.185Z,98100.20
2018-10-06T04:50:43.490Z,98096.96
2018-10-06T04:53:11.939Z,98101.40
2018-10-06T04:55:40.198Z,98099.83
2018-10-06T04:58:08.513Z,98099.52
2018-10-06T05:00:37.158Z,98097.86
2018-10-06T05:03:05.437Z,98093.42
2018-10-06T05:05:33.733Z,98082.64
2018-10-06T05:08:02.053Z,98087.44
2018-10-06T05:10:30.488Z,98084.44
2018-10-06T05:12:58.780Z,98080.67
2018-10-06T05:15:27.202Z,98079.06
2018-10-06T05:17:55.654Z,98080.36
2018-10-06T05:20:23.921Z,98081.30
2018-10-06T05:22:52.252Z,98080.71
2018-10-06T05:25:20.668Z,98083.30
2018-10-06T05:27:48.928Z,98099.52
2018-10-06T05:30:17.360Z,98098.84
2018-10-06T05:32:45.670Z,98103.31
2018-10-06T05:35:13.973Z,98098.03
2018-10-06T05:37:42.244Z,98110.14
2018-10-06T05:40:10.609Z,98110.66
2018-10-06T05:42:38.913Z,98108.51
2018-10-06T05:45:07.372Z,98107.27
2018-10-06T05:47:35.678Z,98100.05
2018-10-06T05:50:04.082Z,98088.39
2018-10-06T05:52:32.442Z,98084.34
2018-10-06T05:55:00.729Z,98084.91
2018-10-06T05:57:29.043Z,98092.96
2018-10-06T05:59:57.353Z,98099.41
2018-10-06T06:02:25.798Z,98099.27
2018-10-06T06:04:54.099Z,98104.06
2018-10-06T06:07:22.502Z,98102.58
2018-10-06T06:09:50.936Z,98100.20
2018-10-06T06:12:19.238Z,98094.41
2018-10-06T06:14:47.695Z,98102.69
2018-10-06T06:17:16.088Z,98101.55
2018-10-06T06:19:44.399Z,98105.06
2018-10-06T06:22:12.818Z,98104.32
2018-10-06T06:24:41.117Z,98105.01
2018-10-06T06:27:09.492Z,98101.05
2018-10-06T06:29:37.947Z,98099.57
2018-10-06T06:32:06.449Z,98098.27
2018-10-06T06:34:35.604Z,98100.12
2018-10-06T06:37:04.096Z,98091.69
2018-10-06T06:39:32.586Z,98102.33
2018-10-06T06:42:01.038Z,98101.48
2018-10-06T06:44:29.480Z,98095.08
2018-10-06T06:46:57.688Z,98095.16
2018-10-06T06:49:25.997Z,98090.14
2018-10-06T06:51:54.457Z,98090.16
2018-10-06T06:54:22.809Z,98097.36
2018-10-06T06:56:51.246Z,98091.52
2018-10-06T06:59:19.585Z,98091.29
2018-10-06T07:01:47.973Z,98094.20
2018-10-06T07:04:16.308Z,98093.20
2018-10-06T07:06:44.677Z,98089.02
2018-10-06T07:09:12.969Z,98090.70
2018-10-06T07:11:47.744Z,98087.30
2018-10-06T07:14:16.115Z,98092.14
2018-10-06T07:16:44.411Z,98091.12
2018-10-06T07:19:13.541Z,98095.24
2018-10-06T07:21:41.828Z,98094.11
2018-10-06T07:24:10.223Z,98101.81
2018-10-06T07:26:38.615Z,98102.05
2018-10-06T07:29:07.067Z,98097.52
2018-10-06T07:31:35.611Z,98097.69
2018-10-06T07:34:03.915Z,98095.24
2018-10-06T07:36:32.305Z,98100.71
2018-10-06T07:39:00.632Z,98095.86
2018-10-06T07:41:28.964Z,98093.33
2018-10-06T07:43:58.181Z,98092.11
2018-10-06T07:46:26.606Z,98093.11
2018-10-06T07:48:55.046Z,98084.67
2018-10-06T07:51:23.459Z,98092.98
2018-10-06T07:53:51.791Z,98094.20
2018-10-06T07:56:20.206Z,98094.98
2018-10-06T07:58:48.498Z,98090.60
2018-10-06T08:01:16.901Z,98093.03
2018-10-06T08:03:45.343Z,98093.77
2018-10-06T08:06:13.639Z,98095.30
2018-10-06T08:08:41.989Z,98084.00
2018-10-06T08:11:10.351Z,98081.78
2018-10-06T08:13:38.698Z,98084.62
2018-10-06T08:16:08.661Z,98076.97
2018-10-06T08:18:37.043Z,98070.28
2018-10-06T08:21:05.489Z,98072.38
2018-10-06T08:23:34.160Z,98066.25
2018-10-06T08:26:02.790Z,98068.22
2018-10-06T08:28:31.157Z,98059.41
2018-10-06T08:30:59.552Z,98059.86
2018-10-06T08:33:27.956Z,98059.56
2018-10-06T08:35:56.677Z,98054.45
2018-10-06T08:38:25.095Z,98045.19
2018-10-06T08:40:53.515Z,98049.87
2018-10-06T08:43:21.960Z,98045.22
2018-10-06T08:45:50.246Z,98044.72
2018-10-06T08:48:18.539Z,98047.38
2018-10-06T08:50:47.009Z,98042.87
2018-10-06T08:53:15.449Z,98052.63
2018-10-06T08:55:43.779Z,98039.63
2018-10-06T08:58:12.161Z,98042.05
2018-10-06T09:00:40.616Z,98039.57
2018-10-06T09:03:09.246Z,98040.88
2018-10-06T09:05:37.542Z,98045.52
2018-10-06T09:08:06.096Z,98041.73
2018-10-06T09:10:34.550Z,98038.05
2018-10-06T09:13:02.869Z,98036.03
2018-10-06T09:15:31.122Z,98038.91
2018-10-06T09:17:59.489Z,98031.66
2018-10-06T09:20:27.816Z,98021.44
2018-10-06T09:22:56.124Z,98024.11
2018-10-06T09:25:24.660Z,98028.67
2018-10-06T09:27:53.109Z,98025.63
2018-10-06T09:30:21.388Z,98017.06
2018-10-06T09:32:49.672Z,98015.98
2018-10-06T09:35:17.928Z,98011.85
2018-10-06T09:37:46.196Z,98010.86
2018-10-06T09:40:15.384Z,97997.80
2018-10-06T09:42:43.841Z,97999.62
2018-10-06T09:45:12.097Z,97990.95
2018-10-06T09:47:40.409Z,97997.80
2018-10-06T09:50:09.032Z,97985.69
2018-10-06T09:52:37.456Z,97985.33
2018-10-06T09:55:05.824Z,97985.66
2018-10-06T09:57:34.344Z,97987.36
2018-10-06T10:00:02.675Z,97980.09
2018-10-06T10:02:36.304Z,97976.66
2018-10-06T10:05:10.783Z,97973.23
2018-10-06T10:07:39.176Z,97969.53
2018-10-06T10:10:07.877Z,97970.80
2018-10-06T10:12:36.401Z,97969.12
2018-10-06T10:15:04.616Z,97962.47
2018-10-06T10:17:33.002Z,97970.44
2018-10-06T10:20:02.025Z,97960.45
2018-10-06T10:22:30.542Z,97961.06
2018-10-06T10:24:58.651Z,97955.08
2018-10-06T10:27:27.040Z,97957.87
2018-10-06T10:29:55.345Z,97952.72
2018-10-06T10:32:23.845Z,97957.25
2018-10-06T10:34:54.540Z,97953.55
2018-10-06T10:37:23.219Z,97945.45
2018-10-06T10:39:51.989Z,97946.05
2018-10-06T10:42:20.253Z,97939.21
2018-10-06T10:44:48.663Z,97948.23
2018-10-06T10:47:17.117Z,97940.56
2018-10-06T10:49:45.424Z,97943.17
2018-10-06T10:52:13.777Z,97937.77
2018-10-06T10:54:44.555Z,97937.91
2018-10-06T10:57:13.388Z,97925.25
2018-10-06T10:59:41.790Z,97921.49
2018-10-06T11:02:10.191Z,97911.40
2018-10-06T11:04:38.853Z,97912.88
2018-10-06T11:07:07.576Z,97912.61
2018-10-06T11:09:36.120Z,97911.77
2018-10-06T11:12:04.479Z,97908.22
2018-10-06T11:14:33.786Z,97905.53
2018-10-06T11:17:02.201Z,97892.04
2018-10-06T11:19:33.497Z,97897.47
2018-10-06T11:22:01.774Z,97891.70
2018-10-06T11:24:32.265Z,97890.51
2018-10-06T11:27:02.496Z,97891.80
2018-10-06T11:29:31.390Z,97877.95
2018-10-06T11:32:01.640Z,97873.57
2018-10-06T11:34:30.324Z,97871.20
2018-10-06T11:36:58.583Z,97870.84
2018-10-06T11:39:26.954Z,97867.92
2018-10-06T11:41:55.260Z,97868.88
2018-10-06T11:44:23.569Z,97867.53
2018-10-06T11:46:51.840Z,97861.17
2018-10-06T11:49:20.201Z,97855.80
2018-10-06T11:51:48.498Z,97846.73
2018-10-06T11:54:16.809Z,97838.09
2018-10-06T11:56:45.173Z,97834.02
2018-10-06T11:59:13.510Z,97822.27
2018-10-06T12:01:41.917Z,97823.02
2018-10-06T12:04:10.231Z,97816.73
2018-10-06T12:06:38.559Z,97815.88
2018-10-06T12:09:08.022Z,97821.64
2018-10-06T12:11:36.695Z,97805.98
2018-10-06T12:14:05.179Z,97806.97
2018-10-06T12:16:33.510Z,97809.83
2018-10-06T12:19:01.900Z,97813.20
2018-10-06T12:21:30.706Z,97797.25
2018-10-06T12:23:59.159Z,97805.45
2018-10-06T12:26:27.487Z,97804.34
2018-10-06T12:28:55.783Z,97800.97
2018-10-06T12:31:24.170Z,97797.05
2018-10-06T12:33:52.391Z,97789.95
2018-10-06T12:36:20.756Z,97788.82
2018-10-06T12:38:49.149Z,97786.23
2018-10-06T12:41:17.571Z,97781.61
2018-10-06T12:43:45.813Z,97782.23
2018-10-06T12:46:14.083Z,97779.95
2018-10-06T12:48:42.367Z,97773.77
2018-10-06T12:51:10.589Z,97763.06
2018-10-06T12:53:38.918Z,97766.49
2018-10-06T12:56:07.898Z,97755.53
2018-10-06T12:58:36.388Z,97758.46
2018-10-06T13:01:04.716Z,97759.21
2018-10-06T13:03:33.001Z,97751.81
2018-10-06T13:06:01.345Z,97752.69
2018-10-06T13:08:29.622Z,97747.53
2018-10-06T13:10:57.939Z,97748.94
2018-10-06T13:13:26.379Z,97748.09
2018-10-06T13:15:54.656Z,97740.96
2018-10-06T13:18:22.988Z,97741.95
2018-10-06T13:20:51.289Z,97738.36
2018-10-06T13:23:19.599Z,97734.36
2018-10-06T13:25:47.870Z,97743.41
2018-10-06T13:28:16.182Z,97738.41
2018-10-06T13:30:44.446Z,97737.58
2018-10-06T13:33:12.824Z,97735.46
2018-10-06T13:35:41.178Z,97729.75
2018-10-06T13:38:09.541Z,97731.38
2018-10-06T13:40:37.861Z,97730.89
2018-10-06T13:43:06.171Z,97726.78
2018-10-06T13:45:34.518Z,97733.01
2018-10-06T13:48:02.820Z,97722.84
2018-10-06T13:50:31.312Z,97724.42
2018-10-06T13:52:59.576Z,97721.09
2018-10-06T13:55:27.867Z,97722.92
2018-10-06T13:57:56.224Z,97719.36
2018-10-06T14:00:24.467Z,97716.02
2018-10-06T14:02:52.869Z,97715.54
2018-10-06T14:05:21.256Z,97712.88
2018-10-06T14:07:49.592Z,97713.49
2018-10-06T14:10:18.440Z,97714.92
2018-10-06T14:12:46.940Z,97707.08
2018-10-06T14:15:15.321Z,97708.20
2018-10-06T14:17:43.586Z,97704.22
2018-10-06T14:20:11.987Z,97703.44
2018-10-06T14:22:40.272Z,97702.88
2018-10-06T14:25:08.610Z,97698.30
2018-10-06T14:27:36.909Z,97704.08
2018-10-06T14:30:05.235Z,97700.47
2018-10-06T14:32:33.517Z,97703.89
2018-10-06T14:35:01.841Z,97697.59
2018-10-06T14:37:30.194Z,97693.69
2018-10-06T14:39:58.614Z,97690.61
2018-10-06T14:42:27.130Z,97689.95
2018-10-06T14:44:55.438Z,97691.76
2018-10-06T14:47:23.746Z,97692.11
2018-10-06T14:49:52.106Z,97681.08
2018-10-06T14:52:20.658Z,97686.58
2018-10-06T14:54:49.160Z,97678.44
2018-10-06T14:57:17.716Z,97678.47
2018-10-06T14:59:46.138Z,97679.32
2018-10-06T15:02:14.610Z,97678.59
2018-10-06T15:04:42.966Z,97681.08
2018-10-06T15:07:11.310Z,97684.61
2018-10-06T15:09:39.603Z,97682.81
2018-10-06T15:12:08.048Z,97676.37
2018-10-06T15:14:36.396Z,97681.02
2018-10-06T15:17:04.713Z,97679.19
2018-10-06T15:19:33.044Z,97672.53
2018-10-06T15:22:01.354Z,97671.39
2018-10-06T15:24:29.852Z,97668.02
2018-10-06T15:26:58.224Z,97669.27
2018-10-06T15:29:26.562Z,97660.87
2018-10-06T15:31:56.341Z,97664.12
2018-10-06T15:34:25.380Z,97667.22
2018-10-06T15:36:53.688Z,97659.09
2018-10-06T15:39:22.039Z,97665.88
2018-10-06T15:41:50.413Z,97666.44
2018-10-06T15:44:18.713Z,97661.52
2018-10-06T15:46:47.072Z,97660.34
2018-10-06T15:49:15.356Z,97659.25
2018-10-06T15:51:43.702Z,97658.11
2018-10-06T15:54:12.070Z,97661.13
2018-10-06T15:56:40.386Z,97660.42
2018-10-06T15:59:08.644Z,97661.61
2018-10-06T16:01:37.208Z,97660.97
2018-10-06T16:04:05.585Z,97654.56
2018-10-06T16:06:34.003Z,97663.16
2018-10-06T16:09:02.427Z,97657.77
2018-10-06T16:11:30.993Z,97655.67
2018-10-06T16:13:59.274Z,97657.38
2018-10-06T16:16:27.606Z,97659.50
2018-10-06T16:18:55.905Z,97651.52
2018-10-06T16:21:24.208Z,97651.70
2018-10-06T16:23:52.434Z,97658.19
2018-10-06T16:26:20.833Z,97664.88
2018-10-06T16:28:49.300Z,97660.13
2018-10-06T16:32:10.714Z,97660.30
2018-10-06T16:34:39.129Z,97663.81
2018-10-06T16:37:07.395Z,97668.80
2018-10-06T16:39:35.902Z,97665.27
2018-10-06T16:42:04.233Z,97663.80
2018-10-06T16:44:32.660Z,97664.30
2018-10-06T16:47:00.994Z,97662.94
2018-10-06T16:49:29.316Z,97663.53
2018-10-06T16:51:57.615Z,97665.88
2018-10-06T16:54:25.978Z,97659.61
2018-10-06T16:56:54.438Z,97656.62
2018-10-06T16:59:22.767Z,97660.18
2018-10-06T17:01:51.131Z,97665.20
2018-10-06T17:04:19.374Z,97666.64
2018-10-06T17:06:47.713Z,97668.54
2018-10-06T17:09:16.131Z,97667.36
2018-10-06T17:11:44.426Z,97669.58
2018-10-06T17:14:12.747Z,97672.47
2018-10-06T17:16:41.038Z,97666.58
2018-10-06T17:19:09.404Z,97670.78
2018-10-06T17:21:37.700Z,97668.59
2018-10-06T17:24:06.885Z,97664.09
2018-10-06T17:26:35.172Z,97666.77
2018-10-06T17:29:03.444Z,97667.30
2018-10-06T17:31:31.715Z,97660.61
2018-10-06T17:34:00.064Z,97663.73
2018-10-06T17:36:28.530Z,97658.94
2018-10-06T17:38:57.301Z,97660.80
2018-10-06T17:41:25.544Z,97663.85
2018-10-06T17:43:53.992Z,97667.23
2018-10-06T17:46:22.635Z,97659.83
2018-10-06T17:48:50.949Z,97662.70
2018-10-06T17:51:19.434Z,97664.88
2018-10-06T17:53:47.803Z,97664.05
2018-10-06T17:56:16.220Z,97662.87
2018-10-06T17:58:44.677Z,97658.52
2018-10-06T18:01:13.897Z,97653.83
2018-10-06T18:03:42.254Z,97656.84
2018-10-06T18:06:10.696Z,97661.54
2018-10-06T18:08:39.009Z,97657.51
2018-10-06T18:11:07.513Z,97664.32
2018-10-06T18:13:35.970Z,97658.80
2018-10-06T18:16:05.180Z,97666.31
2018-10-06T18:18:33.623Z,97663.63
2018-10-06T18:21:02.125Z,97662.44
2018-10-06T18:23:30.429Z,97667.47
2018-10-06T18:25:58.772Z,97665.81
2018-10-06T18:28:29.785Z,97668.49
2018-10-06T18:30:58.445Z,97665.81
2018-10-06T18:33:26.743Z,97658.47
2018-10-06T18:35:55.099Z,97663.14
2018-10-06T18:38:23.413Z,97666.80
2018-10-06T18:40:51.730Z,97673.18
2018-10-06T18:43:20.172Z,97671.17
2018-10-06T18:45:48.496Z,97670.30
2018-10-06T18:48:16.796Z,97673.32
2018-10-06T18:50:45.081Z,97674.39
2018-10-06T18:53:13.424Z,97673.55
2018-10-06T18:55:41.809Z,97673.94
2018-10-06T18:58:10.084Z,97671.45
2018-10-06T19:00:38.549Z,97677.59
2018-10-06T19:03:07.510Z,97675.28
2018-10-06T19:05:35.733Z,97674.24
2018-10-06T19:08:04.082Z,97678.94
2018-10-06T19:10:34.000Z,97672.28
2018-10-06T19:13:02.304Z,97677.65
2018-10-06T19:15:30.666Z,97685.19
2018-10-06T19:22:10.781Z,97690.97
2018-10-06T19:24:39.265Z,97692.49
2018-10-06T19:27:07.622Z,97693.73
2018-10-06T19:29:36.094Z,97689.91
2018-10-06T19:32:04.540Z,97692.19
2018-10-06T19:34:32.892Z,97697.16
2018-10-06T19:37:01.242Z,97695.16
2018-10-06T19:39:29.704Z,97697.81
2018-10-06T19:41:58.045Z,97701.80
2018-10-06T19:44:26.562Z,97700.41
2018-10-06T19:46:54.982Z,97705.09
2018-10-06T19:49:23.426Z,97706.66
2018-10-06T19:51:51.737Z,97704.08
2018-10-06T19:54:21.796Z,97706.34
2018-10-06T19:56:52.395Z,97696.45
2018-10-06T19:59:20.670Z,97698.70
2018-10-06T20:01:49.113Z,97705.80
2018-10-06T20:04:17.575Z,97705.69
2018-10-06T20:06:45.922Z,97710.56
2018-10-06T20:09:14.273Z,97710.05
2018-10-06T20:11:42.671Z,97707.81
2018-10-06T20:14:11.003Z,97723.00
2018-10-06T20:16:39.467Z,97725.09
2018-10-06T20:19:07.943Z,97728.02
2018-10-06T20:21:36.356Z,97727.30
2018-10-06T20:24:04.803Z,97726.77
2018-10-06T20:26:33.240Z,97721.59
2018-10-06T20:29:02.237Z,97727.83
2018-10-06T20:31:30.647Z,97727.17
2018-10-06T20:33:59.872Z,97730.72
2018-10-06T20:36:28.218Z,97731.21
2018-10-06T20:38:56.597Z,97733.55
2018-10-06T20:41:24.944Z,97729.03
2018-10-06T20:43:53.266Z,97730.39
2018-10-06T20:46:21.699Z,97733.78
2018-10-06T20:48:50.090Z,97732.70
2018-10-06T20:51:18.416Z,97733.60
2018-10-06T20:53:46.747Z,97730.23
2018-10-06T20:56:15.048Z,97728.96
2018-10-06T20:58:43.452Z,97728.23
2018-10-06T21:01:11.732Z,97731.63
2018-10-06T21:03:40.013Z,97734.31
2018-10-06T21:06:08.550Z,97737.03
2018-10-06T21:08:36.868Z,97737.98
2018-10-06T21:11:05.166Z,97732.11
2018-10-06T21:13:33.476Z,97729.89
2018-10-06T21:16:01.816Z,97735.30
2018-10-06T21:18:30.378Z,97725.75
2018-10-06T21:20:58.716Z,97732.52
2018-10-06T21:23:27.076Z,97730.63
2018-10-06T21:25:58.301Z,97730.84
2018-10-06T21:28:26.590Z,97734.95
2018-10-06T21:30:55.059Z,97731.69
2018-10-06T21:33:23.487Z,97733.02
2018-10-06T21:35:51.824Z,97728.24
2018-10-06T21:38:20.488Z,97730.23
2018-10-06T21:40:49.091Z,97726.41
2018-10-06T21:43:17.357Z,97731.75
2018-10-06T21:45:45.798Z,97731.63
2018-10-06T21:48:14.192Z,97733.35
2018-10-06T21:50:42.511Z,97725.38
2018-10-06T21:53:10.818Z,97730.14
2018-10-06T21:55:39.185Z,97733.00
2018-10-06T21:58:07.475Z,97716.26
2018-10-06T22:00:35.760Z,97720.44
2018-10-06T22:03:04.182Z,97723.50
2018-10-06T22:05:32.512Z,97718.94
2018-10-06T22:08:00.860Z,97716.53
2018-10-06T22:10:29.182Z,97717.45
2018-10-06T22:12:57.485Z,97714.87
2018-10-06T22:15:25.818Z,97713.39
2018-10-06T22:17:54.127Z,97709.78
2018-10-06T22:20:22.407Z,97714.19
2018-10-06T22:22:50.834Z,97705.14
2018-10-06T22:25:19.356Z,97709.06
2018-10-06T22:27:47.668Z,97706.79
2018-10-06T22:30:15.968Z,97706.30
2018-10-06T22:32:44.277Z,97707.37
2018-10-06T22:35:12.600Z,97701.84
2018-10-06T22:37:40.962Z,97705.52
2018-10-06T22:40:09.318Z,97706.45
2018-10-06T22:42:37.821Z,97708.31
2018-10-06T22:45:06.847Z,97709.44
2018-10-06T22:47:35.211Z,97703.02
2018-10-06T22:50:03.630Z,97703.70
2018-10-06T22:52:31.889Z,97706.14
2018-10-06T22:55:00.254Z,97702.23
2018-10-06T22:57:28.740Z,97705.38
2018-10-06T22:59:57.113Z,97703.36
2018-10-06T23:02:25.529Z,97696.73
2018-10-06T23:04:53.890Z,97692.11
2018-10-06T23:07:22.534Z,97692.85
2018-10-06T23:09:51.005Z,97689.18
2018-10-06T23:12:19.417Z,97693.14
2018-10-06T23:14:47.795Z,97697.54
2018-10-06T23:17:18.551Z,97689.80
2018-10-06T23:19:47.540Z,97696.52
2018-10-06T23:22:16.000Z,97689.77
2018-10-06T23:24:45.065Z,97693.38
2018-10-06T23:27:14.274Z,97691.34
2018-10-06T23:29:42.550Z,97684.32
2018-10-06T23:32:10.820Z,97689.93
2018-10-06T23:34:39.145Z,97689.25
2018-10-06T23:37:07.802Z,97688.31
2018-10-06T23:39:36.114Z,97691.95
2018-10-06T23:42:04.960Z,97700.81
2018-10-06T23:44:33.509Z,97706.14
2018-10-06T23:47:02.719Z,97708.20
2018-10-06T23:49:30.992Z,97705.45
2018-10-06T23:51:59.321Z,97705.61
2018-10-06T23:54:27.746Z,97700.84
2018-10-06T23:56:56.066Z,97702.55
2018-10-06T23:59:24.351Z,97706.17
